This is the latest recevied weather packets stored in our database for station/object WA1OUI. If no packets are shown the sender has not sent any weather packets the latest 10 day(s).
| Time | Temp. | Humidity | Pressure | Rain* | Wind** | Luminosity | Snow |
|---|---|---|---|---|---|---|---|
| 1778271458 | 15° C | 44% | 1008.7 hPa | 0 mm | - | 452 W/m² | - |
| 1778271155 | 14.44° C | 47% | 1008.8 hPa | 0 mm | - | 81 W/m² | - |
| 1778270852 | 13.89° C | 47% | 1009 hPa | 0 mm | - | 446 W/m² | - |
| 1778270548 | 13.89° C | 49% | 1009 hPa | 0 mm | - | 96 W/m² | - |
| 1778269941 | 15° C | 44% | 1008.9 hPa | 0 mm | - | 147 W/m² | - |
| 1778269638 | 15.56° C | 46% | 1008.8 hPa | 0 mm | - | 191 W/m² | - |
| 1778269031 | 15.56° C | 47% | 1008.8 hPa | 0 mm | - | 605 W/m² | - |
| 1778268728 | 15° C | 48% | 1008.8 hPa | 0 mm | - | 630 W/m² | - |
| 1778268425 | 13.89° C | 56% | 1008.9 hPa | 0 mm | - | 638 W/m² | - |
| 1778268122 | 13.89° C | 49% | 1009.1 hPa | 0 mm | - | 536 W/m² | - |
| 1778267819 | 13.89° C | 48% | 1009.2 hPa | 0 mm | - | 69 W/m² | - |
| 1778267515 | 13.89° C | 46% | 1008.9 hPa | 0 mm | - | 51 W/m² | - |
| 1778267213 | 14.44° C | 46% | 1008.9 hPa | 0 mm | - | 128 W/m² | - |
| 1778266909 | 15° C | 44% | 1008.7 hPa | 0 mm | - | 100 W/m² | - |
| 1778266606 | 15.56° C | 44% | 1008.6 hPa | 0 mm | - | 122 W/m² | - |
| 1778266303 | 15.56° C | 45% | 1008.7 hPa | 0 mm | - | 156 W/m² | - |
| 1778266001 | 15° C | 46% | 1008.6 hPa | 0 mm | - | 645 W/m² | - |
| 1778265394 | 15.56° C | 42% | 1009 hPa | 0 mm | - | 151 W/m² | - |
| 1778265090 | 15.56° C | 48% | 1008.9 hPa | 0 mm | - | 681 W/m² | - |
| 1778264787 | 15° C | 42% | 1008.7 hPa | 0 mm | - | 692 W/m² | - |
| 1778264483 | 15° C | 43% | 1009 hPa | 0 mm | - | 368 W/m² | - |
| 1778264179 | 14.44° C | 44% | 1008.8 hPa | 0 mm | - | 717 W/m² | - |
| 1778263877 | 13.89° C | 51% | 1008.8 hPa | 0 mm | - | 693 W/m² | - |
| 1778263573 | 13.33° C | 47% | 1008.9 hPa | 0 mm | - | 670 W/m² | - |
| 1778263269 | 13.33° C | 48% | 1009.2 hPa | 0 mm | - | 236 W/m² | - |
* Rain latest hour (hover to see other rain measurements)
** Current wind speed in m/s (hover to see current wind gust speed)